Time;durP1;ratioP1;P1;durP2;ratioP2;P2;SDS_P1;SDS_P2;PMS_P1;PMS_P2;Temp;Humidity;BMP_temperature;BMP_pressure;BME280_temperature;BME280_humidity;BME280_pressure;Samples;Min_cycle;Max_cycle;Signal;HPM_P1;HPM_P2
2021/11/13 00:00:11;;;;;;;;;96.33;77.00;;;;;5.68;83.24;102048.72;5055933;28;8856;-73
2021/11/13 00:03:08;;;;;;;;;93.33;78.33;;;;;5.72;83.71;102049.00;5043482;28;8832;-73
2021/11/13 00:05:35;;;;;;;;;95.00;82.33;;;;;5.66;83.48;102048.16;5038623;28;8828;-72
2021/11/13 00:08:31;;;;;;;;;88.33;67.67;;;;;5.51;83.77;102045.31;5055073;28;8870;-73
2021/11/13 00:11:26;;;;;;;;;88.67;71.33;;;;;5.36;84.00;102046.00;5041885;28;8917;-73
2021/11/13 00:14:22;;;;;;;;;98.00;77.67;;;;;5.40;83.80;102051.81;5055103;28;8855;-73
2021/11/13 00:17:18;;;;;;;;;102.00;90.67;;;;;5.38;84.15;102060.31;5042356;28;8928;-73
2021/11/13 00:20:14;;;;;;;;;103.33;84.00;;;;;5.38;83.97;102054.00;5055031;28;8974;-73
2021/11/13 00:23:10;;;;;;;;;95.00;80.00;;;;;5.41;83.21;102059.78;5041240;28;8852;-73
2021/11/13 00:26:06;;;;;;;;;90.67;71.67;;;;;5.32;83.90;102061.38;5054769;28;8836;-73
2021/11/13 00:29:02;;;;;;;;;95.00;76.33;;;;;5.28;83.62;102055.56;5055564;28;8843;-73
2021/11/13 00:31:58;;;;;;;;;94.33;82.00;;;;;5.19;83.94;102068.09;5054531;28;8860;-72
2021/11/13 00:34:53;;;;;;;;;97.33;70.67;;;;;5.26;83.64;102057.75;5066299;28;8871;-73
2021/11/13 00:37:49;;;;;;;;;90.67;73.00;;;;;5.19;83.07;102067.28;5041139;28;8886;-72
2021/11/13 00:40:44;;;;;;;;;99.00;76.67;;;;;5.26;83.23;102055.00;5056024;28;8835;-72
2021/11/13 00:43:40;;;;;;;;;100.33;77.33;;;;;5.18;83.48;102052.75;5055128;28;8836;-73
2021/11/13 00:46:36;;;;;;;;;93.00;73.00;;;;;5.13;83.73;102062.84;5041190;28;8832;-73
2021/11/13 00:49:32;;;;;;;;;97.67;77.00;;;;;5.10;84.06;102063.38;5041892;28;8844;-72
2021/11/13 00:52:28;;;;;;;;;84.00;68.33;;;;;5.07;83.98;102069.38;5055596;28;8946;-72
2021/11/13 00:55:24;;;;;;;;;96.33;76.00;;;;;5.11;83.78;102063.09;5054073;28;8949;-72
2021/11/13 00:58:19;;;;;;;;;92.00;70.33;;;;;5.24;84.30;102072.81;5053479;28;8828;-72
2021/11/13 01:01:15;;;;;;;;;94.33;72.67;;;;;5.41;83.74;102072.69;5040767;28;8844;-72
2021/11/13 01:04:11;;;;;;;;;88.00;67.00;;;;;5.73;87.58;102080.88;5053946;28;8901;-73
2021/11/13 01:07:06;;;;;;;;;80.00;62.67;;;;;6.07;88.34;102075.91;5054224;28;8824;-72
2021/11/13 01:10:05;;;;;;;;;77.00;62.67;;;;;6.39;87.44;102073.00;5054337;28;8828;-72
2021/11/13 01:13:01;;;;;;;;;77.33;60.00;;;;;6.24;84.98;102076.53;5053802;28;8860;-72
2021/11/13 01:15:56;;;;;;;;;73.00;60.33;;;;;6.38;84.38;102080.44;5053524;28;8824;-72
2021/11/13 01:18:52;;;;;;;;;84.00;64.33;;;;;6.30;83.59;102089.19;5065384;28;12367;-72
2021/11/13 01:21:48;;;;;;;;;80.67;61.67;;;;;6.37;83.28;102092.53;5040221;28;11592;-73
2021/11/13 01:24:45;;;;;;;;;85.33;65.33;;;;;6.38;84.24;102088.66;5053561;28;11662;-72
2021/11/13 01:27:40;;;;;;;;;74.25;60.25;;;;;6.53;84.59;102085.16;5020204;28;11562;-73
2021/11/13 01:30:36;;;;;;;;;81.00;65.33;;;;;6.55;84.64;102093.13;5020957;28;11542;-73
2021/11/13 01:33:32;;;;;;;;;74.00;60.25;;;;;6.61;83.92;102092.88;5033367;28;8874;-73
2021/11/13 01:36:27;;;;;;;;;73.50;60.00;;;;;6.65;83.38;102096.72;5032592;28;11588;-72
2021/11/13 01:39:23;;;;;;;;;68.75;57.50;;;;;6.53;82.74;102096.16;5037558;28;11585;-73
2021/11/13 01:42:25;;;;;;;;;73.25;58.00;;;;;6.57;82.35;102086.25;5052967;28;11561;-73
2021/11/13 01:45:21;;;;;;;;;80.33;62.67;;;;;6.51;82.72;102084.56;5053060;28;11583;-73
2021/11/13 01:48:17;;;;;;;;;73.25;57.50;;;;;6.56;82.02;102090.09;5040426;28;11553;-73
2021/11/13 01:51:18;;;;;;;;;78.67;61.67;;;;;6.54;82.08;102092.31;5053168;28;11534;-73
2021/11/13 01:54:14;;;;;;;;;76.33;62.00;;;;;6.44;81.94;102091.41;5054112;28;11585;-73
2021/11/13 01:57:19;;;;;;;;;85.33;66.00;;;;;6.49;83.67;102097.78;5053884;28;8844;-73
2021/11/13 02:00:29;;;;;;;;;84.67;68.00;;;;;6.28;85.40;102096.84;5054620;28;8958;-72
2021/11/13 02:03:24;;;;;;;;;93.67;71.67;;;;;6.37;85.48;102098.03;5039471;28;8832;-72
2021/11/13 02:06:21;;;;;;;;;87.33;72.00;;;;;6.54;84.29;102100.56;5064506;28;8844;-73
2021/11/13 02:09:17;;;;;;;;;98.67;84.00;;;;;6.40;84.34;102102.97;5053102;28;8843;-73
2021/11/13 02:12:12;;;;;;;;;98.33;80.67;;;;;6.38;84.76;102093.34;5052747;28;8982;-72
2021/11/13 02:15:09;;;;;;;;;103.67;90.33;;;;;6.39;83.50;102098.56;5052759;28;9612;-73
2021/11/13 02:18:05;;;;;;;;;100.33;86.33;;;;;6.25;83.23;102105.66;5044376;28;8915;-72
2021/11/13 02:21:01;;;;;;;;;92.67;80.33;;;;;6.31;84.64;102107.31;5032823;28;8858;-72
2021/11/13 02:23:57;;;;;;;;;91.00;74.33;;;;;6.35;83.02;102111.19;5033850;28;9591;-71
2021/11/13 02:26:53;;;;;;;;;94.67;79.00;;;;;6.37;83.27;102120.00;5038969;28;8862;-72
2021/11/13 02:29:49;;;;;;;;;90.67;70.00;;;;;6.35;83.06;102113.09;5052633;28;8843;-72
2021/11/13 02:32:46;;;;;;;;;89.33;71.33;;;;;6.29;84.47;102126.00;5052337;28;8812;-72
2021/11/13 02:35:43;;;;;;;;;97.33;81.67;;;;;6.36;83.45;102128.50;5039128;28;8839;-72
2021/11/13 02:38:40;;;;;;;;;85.33;69.00;;;;;5.94;82.80;102139.53;5040716;28;8868;-72
2021/11/13 02:41:37;;;;;;;;;90.67;70.00;;;;;5.85;83.22;102142.75;5052259;28;8843;-72
2021/11/13 02:44:33;;;;;;;;;89.00;70.67;;;;;5.68;82.84;102138.50;5052437;28;8832;-72
2021/11/13 02:47:28;;;;;;;;;82.33;66.00;;;;;5.82;82.36;102134.19;5052211;28;8840;-72
2021/11/13 02:50:24;;;;;;;;;85.33;68.00;;;;;5.71;82.55;102138.78;5051459;28;8840;-72
2021/11/13 02:53:26;;;;;;;;;81.33;65.00;;;;;5.69;82.07;102140.16;5038823;28;8924;-71
2021/11/13 02:56:22;;;;;;;;;84.00;68.33;;;;;5.59;81.71;102140.88;5051910;28;8828;-70
2021/11/13 02:59:18;;;;;;;;;82.33;68.00;;;;;5.53;81.37;102144.69;5052033;28;8989;-71
2021/11/13 03:01:59;;;;;;;;;88.00;68.33;;;;;5.49;81.78;102147.09;5053295;28;8848;-71
2021/11/13 03:04:55;;;;;;;;;87.00;69.33;;;;;5.36;82.67;102149.44;5052299;28;8879;-72
2021/11/13 03:07:54;;;;;;;;;82.67;63.00;;;;;5.31;83.13;102155.72;5052090;28;8839;-72
2021/11/13 03:10:25;;;;;;;;;85.67;66.67;;;;;5.30;82.64;102151.34;5035599;28;8923;-72
2021/11/13 03:13:21;;;;;;;;;92.67;72.00;;;;;5.26;82.55;102150.19;5051928;28;8844;-72
2021/11/13 03:16:18;;;;;;;;;88.00;70.33;;;;;5.10;82.04;102146.47;5051987;28;8950;-72
2021/11/13 03:19:14;;;;;;;;;93.00;73.00;;;;;4.93;82.49;102149.31;5052215;28;9627;-72
2021/11/13 03:22:10;;;;;;;;;90.67;69.00;;;;;4.80;82.83;102141.47;5051958;28;8952;-72
2021/11/13 03:25:12;;;;;;;;;88.00;71.00;;;;;4.74;82.34;102148.81;5063457;28;8844;-71
2021/11/13 03:28:11;;;;;;;;;101.00;87.00;;;;;4.74;82.76;102154.28;5052029;28;8858;-71
2021/11/13 03:31:08;;;;;;;;;108.00;90.33;;;;;4.48;83.74;102160.56;5018680;28;8908;-72
2021/11/13 03:34:05;;;;;;;;;107.00;95.33;;;;;4.37;84.00;102165.09;5043588;28;8996;-72
2021/11/13 03:37:00;;;;;;;;;84.67;67.00;;;;;4.23;83.69;102179.41;5023116;28;8848;-72
2021/11/13 03:39:56;;;;;;;;;104.00;91.33;;;;;4.11;83.88;102182.22;5051753;28;8908;-72
2021/11/13 03:42:52;;;;;;;;;90.67;72.67;;;;;4.09;83.54;102193.44;5053582;28;8848;-72
2021/11/13 03:45:19;;;;;;;;;101.67;84.67;;;;;4.12;83.05;102192.91;5053050;28;8843;-72
2021/11/13 03:48:16;;;;;;;;;105.00;88.33;;;;;4.11;83.13;102196.75;5032024;28;8850;-72
2021/11/13 03:51:12;;;;;;;;;105.67;86.67;;;;;4.11;82.70;102198.66;5032050;28;8830;-72
2021/11/13 03:54:08;;;;;;;;;108.00;89.33;;;;;3.95;82.99;102200.31;5032642;28;8842;-72
2021/11/13 03:57:05;;;;;;;;;102.00;85.67;;;;;3.86;82.66;102201.81;5035663;28;8862;-72
2021/11/13 04:00:00;;;;;;;;;109.33;97.33;;;;;3.92;83.64;102209.06;5035446;28;8956;-72
2021/11/13 04:02:28;;;;;;;;;102.33;82.67;;;;;3.78;83.80;102213.19;5019084;28;8884;-72
2021/11/13 04:04:57;;;;;;;;;106.67;92.67;;;;;3.90;83.10;102208.44;5035973;28;8834;-72
2021/11/13 04:07:52;;;;;;;;;102.33;87.00;;;;;3.80;83.44;102206.38;5035397;28;8861;-72
2021/11/13 04:10:48;;;;;;;;;105.00;90.00;;;;;4.09;82.16;102207.13;5047238;28;8905;-72
2021/11/13 04:13:44;;;;;;;;;104.00;85.33;;;;;4.12;81.80;102203.88;5037246;28;8924;-72
2021/11/13 04:16:39;;;;;;;;;102.33;80.33;;;;;3.90;81.62;102216.66;5055181;28;8824;-72
2021/11/13 04:19:35;;;;;;;;;106.00;88.33;;;;;3.82;81.82;102222.53;5055237;28;8921;-72
2021/11/13 04:22:31;;;;;;;;;106.67;91.67;;;;;3.71;82.27;102220.72;5054798;28;8835;-73
2021/11/13 04:25:27;;;;;;;;;107.33;89.33;;;;;3.55;83.05;102219.63;5054643;28;8839;-73
2021/11/13 04:28:23;;;;;;;;;105.33;86.67;;;;;3.47;82.73;102220.88;5042567;28;8840;-73
2021/11/13 04:31:18;;;;;;;;;104.00;87.25;;;;;3.46;82.73;102229.31;5054458;28;8851;-72
2021/11/13 04:34:19;;;;;;;;;112.25;95.50;;;;;3.42;82.46;102230.88;5052901;28;8841;-72
2021/11/13 04:37:18;;;;;;;;;111.25;95.25;;;;;3.32;82.84;102242.47;5053161;28;8828;-72
2021/11/13 04:40:15;;;;;;;;;110.50;102.50;;;;;3.33;82.88;102239.47;5052816;28;8833;-72
2021/11/13 04:43:11;;;;;;;;;115.25;96.25;;;;;3.35;82.96;102236.50;5052350;28;8864;-72
2021/11/13 04:46:06;;;;;;;;;110.25;95.50;;;;;3.32;82.17;102245.19;5039538;28;8825;-72
2021/11/13 04:49:03;;;;;;;;;112.50;101.25;;;;;3.27;82.51;102245.09;5051231;28;9562;-72
2021/11/13 04:51:31;;;;;;;;;117.75;90.00;;;;;3.27;82.42;102251.38;5054035;28;8844;-72
2021/11/13 04:54:12;;;;;;;;;123.25;96.50;;;;;3.33;82.32;102255.06;5051797;28;8852;-72
2021/11/13 04:57:08;;;;;;;;;103.00;91.00;;;;;3.38;82.61;102254.34;5041552;28;8836;-72
2021/11/13 05:00:11;;;;;;;;;118.25;100.50;;;;;3.43;81.84;102257.16;5054216;28;9619;-73
2021/11/13 05:03:07;;;;;;;;;111.50;97.25;;;;;3.38;82.51;102257.91;5041191;28;8820;-72
2021/11/13 05:06:02;;;;;;;;;113.50;102.00;;;;;3.32;82.45;102269.81;5053234;28;8932;-72
2021/11/13 05:08:58;;;;;;;;;126.00;108.50;;;;;3.28;82.61;102268.63;5053002;28;8850;-72
2021/11/13 05:11:54;;;;;;;;;111.75;102.75;;;;;3.30;82.86;102278.28;5040819;28;8855;-72
2021/11/13 05:14:49;;;;;;;;;120.50;101.00;;;;;3.23;82.84;102277.56;5053783;28;8886;-72
2021/11/13 05:17:46;;;;;;;;;137.00;114.50;;;;;3.27;82.97;102278.72;5054082;28;8998;-72
2021/11/13 05:20:41;;;;;;;;;139.50;116.50;;;;;3.33;83.18;102282.41;5039381;28;8840;-71
2021/11/13 05:23:39;;;;;;;;;130.75;114.50;;;;;3.41;83.42;102292.97;5053719;28;8898;-71
2021/11/13 05:26:34;;;;;;;;;129.00;114.75;;;;;3.50;84.13;102294.22;5040447;28;8871;-71
2021/11/13 05:29:02;;;;;;;;;141.50;125.25;;;;;3.56;83.24;102297.91;5054608;28;8820;-71
2021/11/13 05:31:30;;;;;;;;;152.25;128.25;;;;;3.66;82.99;102298.06;5036974;28;8957;-71
2021/11/13 05:33:59;;;;;;;;;116.00;100.75;;;;;3.67;82.79;102298.91;5036821;28;8828;-72
2021/11/13 05:36:26;;;;;;;;;163.50;131.25;;;;;3.78;82.71;102311.72;5054380;28;8832;-72
2021/11/13 05:39:22;;;;;;;;;161.50;145.00;;;;;3.92;82.66;102304.84;5040041;28;8930;-73
2021/11/13 05:42:18;;;;;;;;;157.75;133.00;;;;;3.90;82.19;102315.19;5053582;28;8942;-72
2021/11/13 05:45:14;;;;;;;;;154.50;139.50;;;;;3.85;82.67;102317.88;5053116;28;8867;-73
2021/11/13 05:48:10;;;;;;;;;158.25;133.75;;;;;3.95;83.03;102323.50;5053298;28;8895;-72
2021/11/13 05:51:05;;;;;;;;;144.50;125.25;;;;;4.06;83.29;102314.38;5043869;28;8847;-73
2021/11/13 05:54:01;;;;;;;;;155.25;127.25;;;;;4.15;83.30;102309.34;5034667;28;9558;-72
2021/11/13 05:56:44;;;;;;;;;133.75;109.00;;;;;4.16;83.23;102325.53;5051005;28;9626;-72
2021/11/13 05:59:40;;;;;;;;;155.00;131.75;;;;;4.27;83.65;102317.47;5044619;28;8866;-71
2021/11/13 06:02:35;;;;;;;;;125.25;113.75;;;;;4.36;83.62;102330.50;5054006;28;8867;-72
2021/11/13 06:05:04;;;;;;;;;163.25;136.75;;;;;4.41;83.27;102325.13;5052126;28;8840;-72
2021/11/13 06:07:59;;;;;;;;;136.75;118.50;;;;;4.48;84.07;102330.44;5050303;28;8847;-71
2021/11/13 06:10:55;;;;;;;;;142.75;123.00;;;;;4.65;83.60;102338.63;5042769;28;8834;-71
2021/11/13 06:13:51;;;;;;;;;141.50;121.50;;;;;4.75;83.74;102330.53;5046379;28;8844;-71
2021/11/13 06:16:32;;;;;;;;;109.25;80.75;;;;;4.85;83.61;102338.94;5035934;28;8871;-71
2021/11/13 06:19:00;;;;;;;;;128.00;105.00;;;;;4.92;83.83;102341.50;5051832;28;8911;-70
2021/11/13 06:21:29;;;;;;;;;118.00;106.00;;;;;4.95;84.00;102338.25;5052000;28;8837;-71
2021/11/13 06:24:11;;;;;;;;;108.67;97.67;;;;;5.00;84.53;102339.16;5051054;28;8858;-71
2021/11/13 06:26:53;;;;;;;;;102.00;83.33;;;;;5.08;85.16;102348.84;5050938;28;8861;-71
2021/11/13 06:29:49;;;;;;;;;103.33;88.67;;;;;5.25;84.89;102351.53;5024918;28;8842;-70
2021/11/13 06:32:47;;;;;;;;;106.33;91.00;;;;;5.38;84.89;102350.34;5051857;28;8840;-70
2021/11/13 06:35:43;;;;;;;;;93.00;74.33;;;;;5.41;85.46;102347.06;5050282;28;8848;-71
2021/11/13 06:38:16;;;;;;;;;88.33;70.00;;;;;5.45;86.68;102350.97;5051977;28;8844;-71
2021/11/13 06:41:11;;;;;;;;;93.33;73.67;;;;;5.43;87.54;102353.94;5025429;28;8954;-71
2021/11/13 06:43:53;;;;;;;;;89.33;70.67;;;;;5.59;87.25;102355.78;5035604;28;9601;-72
2021/11/13 06:46:21;;;;;;;;;79.33;61.67;;;;;5.63;87.23;102356.13;5033913;28;8858;-71
2021/11/13 06:48:49;;;;;;;;;83.67;67.00;;;;;5.62;87.24;102356.38;5052196;28;8859;-72
2021/11/13 06:51:45;;;;;;;;;91.67;75.00;;;;;5.97;86.57;102366.94;5051966;28;8851;-71
2021/11/13 06:54:26;;;;;;;;;91.00;74.00;;;;;6.21;85.90;102365.56;5052656;28;8852;-71
2021/11/13 06:57:22;;;;;;;;;102.67;85.67;;;;;6.39;84.73;102362.41;5051761;28;8820;-71
2021/11/13 06:59:50;;;;;;;;;89.00;71.00;;;;;6.53;84.43;102360.03;5052995;28;8828;-71
2021/11/13 07:02:18;;;;;;;;;42.33;29.67;;;;;6.82;83.38;102360.50;5052921;28;8921;-72
2021/11/13 07:05:14;;;;;;;;;92.00;74.33;;;;;6.99;82.95;102359.53;5040053;28;8962;-71
2021/11/13 07:08:09;;;;;;;;;99.33;87.33;;;;;7.23;81.79;102371.78;5033534;28;8874;-71
2021/11/13 07:11:05;;;;;;;;;102.67;90.00;;;;;7.40;81.46;102377.91;5041512;28;8848;-71
2021/11/13 07:14:00;;;;;;;;;100.00;81.67;;;;;7.59;80.65;102377.41;5051505;28;8978;-72
2021/11/13 07:16:51;;;;;;;;;92.67;80.67;;;;;7.76;80.79;102384.38;5038536;28;8851;-72
2021/11/13 07:19:32;;;;;;;;;101.33;92.33;;;;;8.03;79.44;102381.41;5065126;28;8836;-71
2021/11/13 07:22:01;;;;;;;;;93.33;79.33;;;;;8.12;78.82;102370.66;5052073;28;8838;-71
2021/11/13 07:24:29;;;;;;;;;96.33;82.00;;;;;7.97;79.42;102367.88;5052478;28;8864;-72
2021/11/13 07:26:57;;;;;;;;;98.33;87.00;;;;;8.03;78.74;102364.03;5035311;28;8842;-71
2021/11/13 07:29:27;;;;;;;;;100.00;88.00;;;;;8.30;79.13;102363.81;5036613;28;8865;-71
2021/11/13 07:31:55;;;;;;;;;98.67;79.67;;;;;8.40;78.38;102363.84;5056603;28;8863;-72
2021/11/13 07:34:51;;;;;;;;;90.00;74.67;;;;;8.41;77.93;102357.22;5042315;28;9654;-72
2021/11/13 07:37:46;;;;;;;;;97.33;85.33;;;;;8.79;77.44;102368.78;5042951;28;8856;-72
2021/11/13 07:40:16;;;;;;;;;89.00;79.00;;;;;9.04;77.26;102373.41;5039326;28;8848;-72
2021/11/13 07:43:12;;;;;;;;;90.67;79.00;;;;;9.32;76.37;102372.78;5041933;28;8863;-73
2021/11/13 07:45:54;;;;;;;;;93.00;77.67;;;;;9.64;75.25;102375.13;5055863;28;8864;-72
2021/11/13 07:48:50;;;;;;;;;93.33;77.33;;;;;9.48;74.93;102376.31;5055732;28;8863;-72
2021/11/13 07:51:45;;;;;;;;;98.33;83.67;;;;;9.68;73.72;102378.16;5038213;28;8826;-72
2021/11/13 07:54:27;;;;;;;;;92.00;80.00;;;;;9.98;72.93;102385.47;5054939;28;11601;-72
2021/11/13 07:57:00;;;;;;;;;88.50;76.75;;;;;10.22;72.61;102385.59;5055319;28;11637;-72
2021/11/13 07:59:28;;;;;;;;;81.50;63.50;;;;;10.16;72.56;102384.78;5055540;28;11648;-73
2021/11/13 08:01:56;;;;;;;;;86.25;72.00;;;;;10.14;72.19;102398.09;5055981;28;11598;-72
2021/11/13 08:04:53;;;;;;;;;97.00;85.50;;;;;10.38;71.63;102395.44;5065872;28;11683;-72
2021/11/13 08:07:50;;;;;;;;;93.50;80.25;;;;;10.69;71.23;102395.19;5054918;28;11580;-72
2021/11/13 08:10:46;;;;;;;;;95.00;82.75;;;;;10.84;69.57;102395.88;5035008;28;11601;-72
2021/11/13 08:13:36;;;;;;;;;86.50;71.75;;;;;10.91;68.36;102394.72;5036008;28;11584;-72
2021/11/13 08:16:32;;;;;;;;;75.00;61.00;;;;;11.00;67.25;102399.34;5053103;28;11779;-72
2021/11/13 08:19:27;;;;;;;;;65.75;54.75;;;;;11.07;65.78;102396.22;5054561;28;12364;-72
2021/11/13 08:22:23;;;;;;;;;34.25;33.00;;;;;10.93;61.66;102385.00;5054143;28;11587;-72
2021/11/13 08:25:19;;;;;;;;;50.00;43.00;;;;;10.99;60.79;102394.91;5041069;28;11489;-72
2021/11/13 08:28:14;;;;;;;;;44.75;38.50;;;;;11.37;60.58;102400.59;5046180;28;11656;-72
2021/11/13 08:31:10;;;;;;;;;41.75;38.50;;;;;11.72;60.06;102393.78;5034569;28;11567;-72
2021/11/13 08:34:06;;;;;;;;;39.50;37.25;;;;;11.64;58.25;102394.44;5045478;28;11520;-72
2021/11/13 08:37:04;;;;;;;;;40.00;37.25;;;;;11.27;58.64;102404.31;5038501;28;11452;-72
2021/11/13 08:40:00;;;;;;;;;32.50;31.50;;;;;11.68;58.84;102396.34;5055647;28;11265;-68
2021/11/13 08:42:50;;;;;;;;;43.50;39.50;;;;;11.64;58.64;102400.81;5037499;28;11505;-68
2021/11/13 08:45:18;;;;;;;;;42.75;39.00;;;;;11.52;58.54;102394.88;5055161;28;11466;-69
2021/11/13 08:47:46;;;;;;;;;39.00;36.00;;;;;11.72;58.38;102391.00;5054867;28;11603;-68
2021/11/13 08:50:35;;;;;;;;;40.00;36.75;;;;;12.00;58.16;102391.22;5055267;28;11311;-68
2021/11/13 08:53:05;;;;;;;;;40.00;36.50;;;;;12.01;58.10;102395.63;5054921;28;11187;-68
2021/11/13 08:56:01;;;;;;;;;33.75;33.00;;;;;12.42;57.56;102387.50;5053898;28;10999;-68
2021/11/13 08:58:29;;;;;;;;;41.50;37.25;;;;;12.11;57.26;102381.63;5049662;28;11234;-68
2021/11/13 09:01:01;;;;;;;;;37.50;35.75;;;;;12.53;57.04;102380.69;5036307;28;11098;-69
2021/11/13 09:03:42;;;;;;;;;41.50;36.50;;;;;12.71;55.33;102378.97;5034688;28;10920;-68
2021/11/13 09:06:30;;;;;;;;;39.50;36.75;;;;;12.96;55.22;102381.31;5030482;28;10734;-69
2021/11/13 09:09:03;;;;;;;;;33.00;33.00;;;;;13.05;54.10;102387.00;5036827;28;10876;-68
2021/11/13 09:11:51;;;;;;;;;30.75;30.75;;;;;12.95;53.29;102379.66;5051272;28;10388;-68
2021/11/13 09:14:20;;;;;;;;;31.00;28.50;;;;;13.03;53.92;102386.44;5068792;28;10519;-68
2021/11/13 09:17:03;;;;;;;;;38.75;34.00;;;;;13.28;53.07;102386.00;5032260;28;10484;-69
2021/11/13 09:19:32;;;;;;;;;31.25;30.00;;;;;13.18;51.95;102382.56;5036864;28;10473;-71
2021/11/13 09:22:00;;;;;;;;;27.50;27.50;;;;;13.10;52.57;102384.09;5020459;28;10364;-70
2021/11/13 09:24:56;;;;;;;;;29.00;29.00;;;;;13.40;51.75;102391.03;5040725;28;10275;-69
2021/11/13 09:27:24;;;;;;;;;24.25;24.00;;;;;13.45;51.90;102385.38;5054322;28;10515;-69
2021/11/13 09:30:09;;;;;;;;;30.75;30.00;;;;;13.28;51.28;102382.41;5053526;28;10291;-69
2021/11/13 09:33:06;;;;;;;;;28.50;27.25;;;;;13.31;51.80;102384.56;5051963;28;10831;-69
2021/11/13 09:36:03;;;;;;;;;26.50;26.50;;;;;13.52;51.94;102388.56;5052881;28;10360;-69
2021/11/13 09:38:35;;;;;;;;;42.50;38.00;;;;;13.59;52.27;102383.44;5054238;28;10069;-69
2021/11/13 09:41:06;;;;;;;;;42.00;37.25;;;;;13.73;51.55;102379.81;5054533;28;10386;-69
2021/11/13 09:43:36;;;;;;;;;37.75;34.50;;;;;13.91;51.85;102382.44;5054265;28;10424;-69
2021/11/13 09:46:07;;;;;;;;;34.50;32.75;;;;;13.85;50.67;102380.91;5054420;28;11087;-69
2021/11/13 09:48:36;;;;;;;;;32.50;32.50;;;;;13.93;51.17;102382.13;5054508;28;10257;-70
2021/11/13 09:51:05;;;;;;;;;37.50;35.50;;;;;13.80;51.13;102377.41;5054169;28;10119;-70
2021/11/13 09:53:34;;;;;;;;;31.75;31.00;;;;;13.83;51.50;102380.41;5036300;28;10339;-69
2021/11/13 09:56:03;;;;;;;;;34.25;33.25;;;;;14.02;52.00;102383.03;5036921;28;10268;-70
2021/11/13 09:58:31;;;;;;;;;70.00;45.00;;;;;14.21;51.51;102387.63;5053754;28;9966;-69
2021/11/13 10:01:05;;;;;;;;;39.50;36.25;;;;;14.39;49.60;102387.44;5054129;28;10776;-69
2021/11/13 10:03:33;;;;;;;;;34.00;33.25;;;;;14.36;50.69;102381.69;5069198;28;10405;-69
2021/11/13 10:06:10;;;;;;;;;42.00;36.00;;;;;14.01;49.25;102378.59;5054070;28;10092;-69
2021/11/13 10:08:38;;;;;;;;;38.75;36.00;;;;;14.13;50.29;102381.66;5054113;28;10272;-69
2021/11/13 10:11:28;;;;;;;;;35.25;33.00;;;;;14.33;48.68;102385.91;5054161;28;10363;-69
2021/11/13 10:13:58;;;;;;;;;36.75;34.25;;;;;14.29;49.49;102381.31;5036368;28;10023;-69
2021/11/13 10:16:49;;;;;;;;;37.25;34.25;;;;;14.25;49.55;102388.63;5052667;28;10023;-69
2021/11/13 10:19:19;;;;;;;;;35.25;34.25;;;;;14.49;50.01;102383.59;5036524;28;10154;-70
2021/11/13 10:21:52;;;;;;;;;34.75;33.25;;;;;14.94;48.88;102394.72;5053483;28;9825;-70
2021/11/13 10:24:28;;;;;;;;;80.00;51.00;;;;;14.78;48.21;102387.91;5053517;28;9773;-69
2021/11/13 10:26:59;;;;;;;;;35.25;31.50;;;;;15.02;47.23;102382.78;5053630;28;10815;-69
2021/11/13 10:29:31;;;;;;;;;33.75;32.50;;;;;14.93;46.82;102387.50;5053685;28;9699;-69
2021/11/13 10:32:03;;;;;;;;;43.50;38.75;;;;;15.20;47.16;102394.84;5053512;28;9802;-69
2021/11/13 10:34:36;;;;;;;;;40.00;36.00;;;;;15.33;46.82;102391.13;5053501;28;10034;-68
2021/11/13 10:37:10;;;;;;;;;31.00;31.00;;;;;15.37;46.46;102386.56;5053263;28;9863;-69
2021/11/13 10:40:08;;;;;;;;;34.00;29.75;;;;;15.38;46.51;102387.38;5039193;28;9637;-68
2021/11/13 10:42:36;;;;;;;;;29.33;29.33;;;;;15.41;46.21;102382.00;5052798;28;9639;-68
2021/11/13 10:45:05;;;;;;;;;34.00;32.75;;;;;15.61;51.20;102377.78;5053183;28;9513;-69
2021/11/13 10:47:39;;;;;;;;;32.00;30.33;;;;;15.84;53.08;102378.50;5053029;28;9789;-70
2021/11/13 10:50:25;;;;;;;;;33.00;29.67;;;;;16.23;49.00;102383.13;5053278;28;9450;-70
2021/11/13 10:52:57;;;;;;;;;43.50;38.75;;;;;15.52;47.25;102380.53;5051694;28;9139;-69
2021/11/13 10:55:26;;;;;;;;;37.50;35.00;;;;;15.26;51.82;102380.47;5035468;28;9772;-74
2021/11/13 10:58:27;;;;;;;;;49.25;42.50;;;;;15.69;51.48;102385.38;5052811;28;9891;-73
2021/11/13 11:01:00;;;;;;;;;63.00;51.50;;;;;15.80;47.24;102385.91;5067577;28;10093;-73
2021/11/13 11:03:42;;;;;;;;;51.25;43.75;;;;;15.72;47.99;102383.88;5052110;28;10774;-74
2021/11/13 11:06:41;;;;;;;;;62.25;50.75;;;;;15.44;47.71;102383.31;5051970;28;11055;-74
2021/11/13 11:09:17;;;;;;;;;49.50;42.25;;;;;15.81;49.46;102379.16;5052707;28;11238;-74
2021/11/13 11:12:10;;;;;;;;;45.75;39.50;;;;;15.74;46.82;102384.41;5037537;28;9924;-74
2021/11/13 11:14:42;;;;;;;;;47.25;41.25;;;;;15.76;53.92;102376.53;5052022;28;9948;-74
2021/11/13 11:17:39;;;;;;;;;52.25;44.50;;;;;15.53;47.77;102379.38;5051818;28;9957;-73
2021/11/13 11:20:14;;;;;;;;;46.75;40.25;;;;;15.69;47.43;102388.16;5037625;28;10127;-73
2021/11/13 11:22:43;;;;;;;;;54.25;44.00;;;;;15.33;48.11;102385.53;5051155;28;9843;-73
2021/11/13 11:25:13;;;;;;;;;54.50;45.00;;;;;15.45;48.72;102382.16;5051429;28;10193;-73
2021/11/13 11:27:49;;;;;;;;;49.25;41.75;;;;;15.64;46.46;102382.75;5035326;28;10181;-74
2021/11/13 11:30:48;;;;;;;;;50.00;43.00;;;;;15.62;47.58;102378.63;5018712;28;9937;-73
2021/11/13 11:33:38;;;;;;;;;51.00;42.50;;;;;15.49;46.93;102383.97;5032774;28;10235;-73
2021/11/13 11:36:33;;;;;;;;;49.75;43.00;;;;;15.78;46.95;102382.59;5035285;28;10189;-73
2021/11/13 11:39:02;;;;;;;;;47.50;38.00;;;;;16.12;46.11;102384.63;5051411;28;10209;-74
2021/11/13 11:41:31;;;;;;;;;41.25;38.00;;;;;16.30;44.97;102391.84;5051680;28;9926;-74
2021/11/13 11:44:27;;;;;;;;;49.75;42.25;;;;;16.14;45.10;102385.09;5039880;28;9893;-74
2021/11/13 11:46:54;;;;;;;;;48.75;39.50;;;;;15.85;45.14;102386.53;5052328;28;10022;-74
2021/11/13 11:49:54;;;;;;;;;50.50;41.25;;;;;15.95;45.56;102388.22;5031670;28;9714;-74
2021/11/13 11:52:37;;;;;;;;;69.75;50.50;;;;;15.67;45.95;102376.50;5036066;28;10375;-74
2021/11/13 11:55:07;;;;;;;;;48.00;40.00;;;;;15.79;46.19;102382.25;5050768;28;10517;-74
2021/11/13 11:57:42;;;;;;;;;46.25;38.00;;;;;15.56;46.85;102377.91;5018807;28;9845;-74
2021/11/13 12:00:17;;;;;;;;;47.25;40.25;;;;;15.48;47.07;102375.91;5052504;28;9783;-74
2021/11/13 12:02:54;;;;;;;;;49.25;42.75;;;;;15.28;46.98;102369.81;5034452;28;9971;-74
2021/11/13 12:05:39;;;;;;;;;42.00;36.00;;;;;15.07;46.40;102365.13;5052093;28;10415;-74
2021/11/13 12:08:35;;;;;;;;;32.75;32.25;;;;;14.74;45.95;102362.66;5050797;28;9795;-74
2021/11/13 12:11:23;;;;;;;;;34.00;32.00;;;;;14.79;46.10;102358.91;5052201;28;9609;-74
2021/11/13 12:13:51;;;;;;;;;42.50;38.50;;;;;14.84;47.89;102354.03;5016528;28;9531;-74
2021/11/13 12:16:47;;;;;;;;;40.50;37.75;;;;;14.92;47.11;102353.25;5055439;28;9836;-74
2021/11/13 12:20:05;;;;;;;;;41.25;36.00;;;;;14.84;48.86;102355.97;5054624;28;9875;-74
2021/11/13 12:22:54;;;;;;;;;44.25;38.50;;;;;14.67;47.54;102342.78;5035925;28;10739;-74
2021/11/13 12:26:01;;;;;;;;;49.50;42.75;;;;;14.65;47.80;102351.47;5035882;28;10109;-74
2021/11/13 12:28:42;;;;;;;;;44.25;39.00;;;;;14.78;48.75;102358.06;5054356;28;10108;-74
2021/11/13 12:31:37;;;;;;;;;50.00;42.00;;;;;14.35;49.37;102355.81;5054864;28;10004;-74
2021/11/13 12:34:34;;;;;;;;;40.00;37.00;;;;;14.30;48.32;102352.34;5041034;28;10134;-74
2021/11/13 12:37:29;;;;;;;;;39.00;36.25;;;;;14.02;50.96;102357.16;5055432;28;10223;-74
2021/11/13 12:39:59;;;;;;;;;30.50;30.50;;;;;14.22;48.88;102362.25;5054671;28;11078;-74
2021/11/13 12:43:04;;;;;;;;;37.75;35.25;;;;;14.06;49.29;102360.97;5054117;28;10664;-74
2021/11/13 12:45:45;;;;;;;;;49.75;37.75;;;;;14.07;49.00;102359.84;5053942;28;9986;-74
2021/11/13 12:48:32;;;;;;;;;27.25;26.75;;;;;14.10;47.52;102368.38;5040723;28;10300;-74